createdAt,value
2018-06-12T00:00:58.948Z,99.90
2018-06-12T00:03:27.516Z,99.90
2018-06-12T00:05:56.142Z,99.90
2018-06-12T00:08:24.662Z,99.90
2018-06-12T00:10:53.071Z,99.90
2018-06-12T00:13:21.740Z,99.90
2018-06-12T00:15:50.311Z,99.90
2018-06-12T00:18:18.507Z,99.90
2018-06-12T00:20:46.992Z,99.90
2018-06-12T00:23:15.778Z,99.90
2018-06-12T00:25:44.170Z,99.90
2018-06-12T00:28:12.395Z,99.90
2018-06-12T00:30:40.625Z,99.90
2018-06-12T00:33:08.812Z,99.90
2018-06-12T00:35:37.907Z,99.90
2018-06-12T00:38:06.533Z,99.90
2018-06-12T00:40:34.758Z,99.90
2018-06-12T00:43:02.965Z,99.90
2018-06-12T00:45:31.192Z,99.90
2018-06-12T00:47:59.381Z,99.90
2018-06-12T00:50:27.598Z,99.90
2018-06-12T00:52:55.834Z,99.90
2018-06-12T00:55:24.466Z,99.90
2018-06-12T00:57:52.978Z,99.90
2018-06-12T01:00:21.468Z,99.90
2018-06-12T01:02:50.452Z,99.90
2018-06-12T01:05:18.944Z,99.90
2018-06-12T01:07:47.142Z,99.90
2018-06-12T01:10:15.570Z,99.90
2018-06-12T01:12:44.194Z,99.90
2018-06-12T01:15:12.808Z,99.90
2018-06-12T01:17:41.047Z,99.90
2018-06-12T01:20:09.665Z,99.90
2018-06-12T01:22:38.227Z,99.90
2018-06-12T01:25:06.765Z,99.90
2018-06-12T01:27:34.956Z,99.90
2018-06-12T01:30:03.585Z,99.90
2018-06-12T01:32:32.298Z,99.90
2018-06-12T01:35:00.514Z,99.90
2018-06-12T01:37:28.998Z,99.90
2018-06-12T01:39:57.650Z,99.90
2018-06-12T01:42:25.891Z,99.90
2018-06-12T01:44:54.104Z,99.90
2018-06-12T01:47:22.346Z,99.90
2018-06-12T01:49:50.863Z,99.90
2018-06-12T01:52:19.078Z,99.90
2018-06-12T01:54:47.818Z,99.90
2018-06-12T01:57:16.027Z,99.90
2018-06-12T01:59:44.661Z,99.90
2018-06-12T02:02:12.954Z,99.90
2018-06-12T02:04:41.697Z,99.90
2018-06-12T02:07:10.822Z,99.90
2018-06-12T02:09:39.506Z,99.90
2018-06-12T02:12:08.433Z,99.90
2018-06-12T02:14:37.078Z,99.90
2018-06-12T02:17:05.303Z,99.90
2018-06-12T02:19:33.549Z,99.90
2018-06-12T02:22:01.798Z,99.90
2018-06-12T02:24:30.034Z,99.90
2018-06-12T02:26:58.544Z,99.90
2018-06-12T02:29:26.776Z,99.90
2018-06-12T02:31:55.385Z,99.90
2018-06-12T02:34:24.202Z,99.90
2018-06-12T02:36:52.636Z,99.90
2018-06-12T02:39:20.830Z,99.90
2018-06-12T02:41:49.047Z,99.90
2018-06-12T02:44:17.681Z,99.90
2018-06-12T02:46:45.898Z,99.90
2018-06-12T02:49:14.794Z,99.90
2018-06-12T02:51:43.004Z,99.90
2018-06-12T02:54:11.213Z,99.90
2018-06-12T02:56:39.423Z,99.90
2018-06-12T02:59:07.613Z,99.90
2018-06-12T03:01:35.847Z,99.90
2018-06-12T03:04:04.357Z,99.90
2018-06-12T03:06:32.581Z,99.90
2018-06-12T03:09:00.806Z,99.90
2018-06-12T03:11:29.618Z,99.90
2018-06-12T03:13:58.247Z,99.90
2018-06-12T03:16:26.487Z,99.90
2018-06-12T03:18:55.151Z,99.90
2018-06-12T03:21:24.174Z,99.90
2018-06-12T03:23:52.415Z,99.90
2018-06-12T03:26:20.642Z,99.90
2018-06-12T03:28:48.897Z,99.90
2018-06-12T03:31:17.143Z,99.90
2018-06-12T03:33:45.379Z,99.90
2018-06-12T03:36:13.643Z,99.90
2018-06-12T03:38:41.834Z,99.90
2018-06-12T03:41:10.051Z,99.90
2018-06-12T03:43:38.755Z,99.90
2018-06-12T03:46:07.326Z,99.90
2018-06-12T03:51:03.991Z,99.90
2018-06-12T03:53:32.214Z,99.90
2018-06-12T03:56:00.443Z,99.90
2018-06-12T04:00:57.107Z,99.90
2018-06-12T04:03:25.566Z,99.90
2018-06-12T04:05:53.787Z,99.90
2018-06-12T04:08:22.000Z,99.90
2018-06-12T04:10:50.584Z,99.90
2018-06-12T04:13:19.582Z,99.90
2018-06-12T04:15:48.206Z,99.90
2018-06-12T04:18:16.802Z,99.90
2018-06-12T04:20:45.195Z,99.90
2018-06-12T04:23:18.727Z,99.90
2018-06-12T04:25:47.367Z,99.90
2018-06-12T04:28:16.017Z,99.90
2018-06-12T04:30:44.735Z,99.90
2018-06-12T04:33:12.942Z,99.90
2018-06-12T04:35:41.183Z,99.90
2018-06-12T04:38:09.877Z,99.90
2018-06-12T04:40:38.070Z,99.90
2018-06-12T04:43:06.592Z,99.90
2018-06-12T04:45:35.423Z,99.90
2018-06-12T04:48:03.690Z,99.90
2018-06-12T04:50:31.918Z,99.90
2018-06-12T04:53:00.371Z,99.90
2018-06-12T04:55:28.579Z,99.90
2018-06-12T04:57:56.806Z,99.90
2018-06-12T05:00:25.451Z,99.90
2018-06-12T05:02:54.338Z,99.90
2018-06-12T05:05:23.128Z,99.90
2018-06-12T05:07:52.552Z,99.90
2018-06-12T05:10:21.183Z,99.90
2018-06-12T05:12:49.391Z,99.90
2018-06-12T05:15:19.110Z,99.90
2018-06-12T05:17:48.503Z,99.90
2018-06-12T05:20:17.063Z,99.90
2018-06-12T05:22:45.634Z,99.90
2018-06-12T05:25:13.878Z,99.90
2018-06-12T05:27:42.558Z,99.90
2018-06-12T05:30:10.835Z,99.90
2018-06-12T05:32:39.354Z,99.90
2018-06-12T05:35:07.940Z,99.90
2018-06-12T05:37:36.536Z,99.90
2018-06-12T05:40:05.090Z,99.90
2018-06-12T05:42:33.587Z,99.90
2018-06-12T05:45:01.785Z,99.90
2018-06-12T05:47:31.117Z,99.90
2018-06-12T05:49:59.346Z,99.90
2018-06-12T05:52:28.195Z,99.90
2018-06-12T05:54:56.400Z,99.90
2018-06-12T05:57:24.597Z,99.90
2018-06-12T05:59:53.160Z,99.90
2018-06-12T06:02:21.934Z,99.90
2018-06-12T06:04:50.114Z,99.90
2018-06-12T06:07:18.771Z,99.90
2018-06-12T06:09:47.010Z,99.90
2018-06-12T06:12:15.626Z,99.90
2018-06-12T06:14:43.827Z,99.90
2018-06-12T06:17:12.043Z,99.90
2018-06-12T06:19:40.251Z,99.90
2018-06-12T06:22:08.455Z,99.90
2018-06-12T06:24:37.007Z,99.90
2018-06-12T06:27:05.343Z,99.90
2018-06-12T06:29:33.619Z,99.90
2018-06-12T06:32:02.147Z,99.90
2018-06-12T06:34:30.500Z,99.90
2018-06-12T06:36:59.019Z,99.90
2018-06-12T06:39:27.290Z,99.90
2018-06-12T06:41:56.179Z,99.90
2018-06-12T06:44:24.374Z,99.90
2018-06-12T06:46:53.017Z,99.90
2018-06-12T06:49:21.239Z,99.90
2018-06-12T06:51:49.862Z,99.90
2018-06-12T06:54:18.499Z,99.90
2018-06-12T06:56:47.596Z,99.90
2018-06-12T06:59:16.166Z,99.90
2018-06-12T07:01:44.415Z,99.90
2018-06-12T07:04:12.910Z,99.90
2018-06-12T07:06:41.711Z,99.90
2018-06-12T07:09:10.291Z,99.90
2018-06-12T07:11:39.082Z,99.90
2018-06-12T07:14:07.580Z,99.90
2018-06-12T07:16:36.286Z,99.90
2018-06-12T07:19:04.530Z,99.90
2018-06-12T07:21:33.646Z,99.90
2018-06-12T07:24:01.873Z,99.90
2018-06-12T07:26:31.295Z,99.90
2018-06-12T07:29:00.386Z,99.90
2018-06-12T07:31:28.604Z,99.90
2018-06-12T07:33:56.864Z,99.90
2018-06-12T07:36:25.430Z,99.90
2018-06-12T07:38:54.063Z,99.90
2018-06-12T07:41:22.346Z,99.90
2018-06-12T07:43:50.989Z,99.90
2018-06-12T07:46:19.657Z,99.90
2018-06-12T07:48:48.965Z,99.90
2018-06-12T07:51:17.328Z,99.90
2018-06-12T07:53:45.638Z,99.90
2018-06-12T07:56:13.867Z,99.90
2018-06-12T07:58:42.498Z,99.90
2018-06-12T08:01:10.779Z,99.90
2018-06-12T08:03:39.111Z,99.90
2018-06-12T08:06:07.711Z,99.90
2018-06-12T08:08:35.941Z,99.90
2018-06-12T08:11:04.206Z,99.90
2018-06-12T08:13:32.451Z,99.90
2018-06-12T08:16:00.638Z,99.90
2018-06-12T08:18:29.741Z,99.90
2018-06-12T08:20:58.011Z,99.90
2018-06-12T08:23:26.251Z,99.90
2018-06-12T08:25:55.278Z,99.90
2018-06-12T08:28:23.488Z,99.90
2018-06-12T08:30:52.569Z,99.90
2018-06-12T08:33:20.814Z,99.90
2018-06-12T08:35:49.622Z,99.90
2018-06-12T08:38:18.126Z,99.90
2018-06-12T08:40:47.447Z,99.90
2018-06-12T08:43:15.719Z,99.90
2018-06-12T08:45:43.950Z,99.90
2018-06-12T08:48:13.028Z,99.90
2018-06-12T08:50:42.632Z,99.90
2018-06-12T08:53:11.538Z,99.90
2018-06-12T08:55:40.218Z,99.90
2018-06-12T08:58:08.514Z,99.90
2018-06-12T09:03:05.338Z,99.90
2018-06-12T09:05:34.708Z,99.90
2018-06-12T09:08:03.435Z,99.90
2018-06-12T09:10:31.663Z,99.90
2018-06-12T09:12:59.902Z,99.90
2018-06-12T09:15:28.322Z,99.90
2018-06-12T09:17:56.584Z,99.90
2018-06-12T09:20:24.818Z,99.90
2018-06-12T09:22:54.072Z,99.90
2018-06-12T09:25:22.515Z,99.90
2018-06-12T09:27:50.994Z,99.90
2018-06-12T09:30:19.845Z,99.90
2018-06-12T09:32:48.766Z,99.90
2018-06-12T09:35:17.098Z,99.30
2018-06-12T09:37:45.322Z,96.10
2018-06-12T09:40:14.402Z,93.10
2018-06-12T09:42:42.722Z,90.20
2018-06-12T09:45:11.382Z,81.20
2018-06-12T09:47:39.651Z,78.20
2018-06-12T09:50:08.234Z,70.50
2018-06-12T09:55:05.335Z,62.40
2018-06-12T09:57:34.287Z,59.20
2018-06-12T10:00:02.891Z,59.20
2018-06-12T10:04:59.667Z,59.10
2018-06-12T10:07:28.348Z,60.00
2018-06-12T10:09:56.663Z,58.10
2018-06-12T10:12:24.883Z,56.70
2018-06-12T10:14:53.103Z,57.30
2018-06-12T10:17:21.428Z,55.20
2018-06-12T10:19:51.287Z,53.10
2018-06-12T10:22:19.571Z,52.60
2018-06-12T10:24:47.810Z,50.50
2018-06-12T10:27:16.049Z,50.70
2018-06-12T10:29:44.715Z,51.70
2018-06-12T10:32:13.361Z,53.30
2018-06-12T10:36:11.474Z,56.10
2018-06-12T10:38:40.940Z,57.00
2018-06-12T10:41:09.966Z,58.00
2018-06-12T10:43:38.200Z,59.40
2018-06-12T10:46:06.929Z,59.00
2018-06-12T10:48:35.282Z,60.20
2018-06-12T10:51:03.838Z,61.60
2018-06-12T10:53:32.423Z,62.50
2018-06-12T10:56:01.160Z,62.90
2018-06-12T10:58:29.407Z,58.70
2018-06-12T11:00:58.586Z,57.00
2018-06-12T11:03:27.285Z,55.70
2018-06-12T11:05:56.199Z,51.60
2018-06-12T11:08:24.635Z,50.00
2018-06-12T11:10:53.527Z,52.10
2018-06-12T11:13:22.230Z,52.30
2018-06-12T11:15:50.943Z,51.30
2018-06-12T11:18:19.439Z,51.10
2018-06-12T11:20:48.092Z,49.80
2018-06-12T11:23:16.356Z,48.80
2018-06-12T11:25:44.943Z,49.50
2018-06-12T11:28:13.215Z,49.20
2018-06-12T11:30:42.210Z,50.40
2018-06-12T11:33:11.449Z,50.90
2018-06-12T11:35:39.626Z,50.60
2018-06-12T11:38:07.880Z,49.80
2018-06-12T11:40:36.180Z,48.70
2018-06-12T11:43:04.414Z,48.70
2018-06-12T11:45:33.354Z,45.90
2018-06-12T11:48:01.603Z,45.20
2018-06-12T11:50:30.406Z,44.80
2018-06-12T11:52:59.159Z,44.80
2018-06-12T11:55:27.679Z,46.40
2018-06-12T11:57:56.556Z,45.00
2018-06-12T12:00:25.322Z,45.50
2018-06-12T12:02:53.980Z,45.80
2018-06-12T12:05:22.652Z,46.60
2018-06-12T12:07:51.301Z,47.10
2018-06-12T12:10:19.966Z,47.60
2018-06-12T12:12:48.907Z,45.30
2018-06-12T12:15:17.438Z,45.60
2018-06-12T12:17:45.976Z,44.70
2018-06-12T12:20:14.556Z,44.90
2018-06-12T12:22:43.192Z,42.10
2018-06-12T12:25:11.932Z,39.00
2018-06-12T12:27:40.139Z,38.40
2018-06-12T12:30:08.789Z,36.50
2018-06-12T12:32:37.154Z,37.00
2018-06-12T12:35:06.174Z,36.70
2018-06-12T12:37:34.464Z,37.40
2018-06-12T12:40:02.707Z,37.50
2018-06-12T12:42:31.027Z,37.80
2018-06-12T12:44:59.597Z,37.40
2018-06-12T12:47:28.143Z,37.70
2018-06-12T12:49:57.251Z,37.90
2018-06-12T12:52:25.511Z,38.40
2018-06-12T12:54:54.549Z,39.80
2018-06-12T12:57:22.956Z,40.00
2018-06-12T12:59:51.639Z,39.40
2018-06-12T13:02:20.154Z,39.10
2018-06-12T13:04:48.722Z,36.20
2018-06-12T13:07:17.855Z,35.60
2018-06-12T13:09:46.210Z,33.90
2018-06-12T13:12:14.863Z,33.00
2018-06-12T13:14:43.806Z,33.50
2018-06-12T13:17:13.292Z,35.70
2018-06-12T13:19:41.538Z,36.90
2018-06-12T13:22:10.198Z,38.30
2018-06-12T13:24:38.939Z,39.00
2018-06-12T13:27:07.649Z,39.50
2018-06-12T13:29:36.283Z,36.20
2018-06-12T13:32:04.535Z,36.70
2018-06-12T13:34:32.803Z,39.80
2018-06-12T13:37:01.323Z,40.10
2018-06-12T13:39:29.834Z,42.60
2018-06-12T13:41:58.438Z,45.90
2018-06-12T13:44:26.995Z,44.50
2018-06-12T13:46:55.328Z,44.60
2018-06-12T13:49:24.583Z,46.00
2018-06-12T13:51:52.854Z,45.80
2018-06-12T13:54:21.103Z,46.30
2018-06-12T13:56:49.579Z,48.10
2018-06-12T13:59:17.867Z,46.80
2018-06-12T14:01:46.069Z,48.30
2018-06-12T14:04:14.754Z,49.10
2018-06-12T14:06:43.290Z,49.10
2018-06-12T14:09:11.519Z,49.30
2018-06-12T14:11:39.731Z,49.40
2018-06-12T14:14:08.294Z,49.80
2018-06-12T14:16:36.530Z,50.50
2018-06-12T14:19:05.136Z,51.60
2018-06-12T14:21:33.536Z,50.40
2018-06-12T14:24:02.478Z,49.30
2018-06-12T14:26:31.182Z,50.40
2018-06-12T14:28:59.549Z,51.30
2018-06-12T14:31:27.783Z,50.70
2018-06-12T14:33:56.469Z,50.50
2018-06-12T14:36:25.019Z,50.30
2018-06-12T14:38:53.711Z,51.00
2018-06-12T14:41:22.305Z,51.70
2018-06-12T14:43:51.157Z,51.20
2018-06-12T14:48:47.903Z,49.60
2018-06-12T14:51:16.967Z,50.60
2018-06-12T14:53:46.742Z,49.70
2018-06-12T14:56:15.909Z,51.00
2018-06-12T14:58:44.158Z,50.70
2018-06-12T15:01:12.389Z,50.90
2018-06-12T15:03:41.118Z,52.60
2018-06-12T15:06:09.651Z,49.60
2018-06-12T15:08:37.968Z,50.80
2018-06-12T15:11:06.899Z,50.00
2018-06-12T15:13:35.527Z,49.40
2018-06-12T15:16:10.727Z,49.20
2018-06-12T15:18:39.048Z,49.30
2018-06-12T15:21:07.603Z,50.10
2018-06-12T15:23:35.826Z,49.10
2018-06-12T15:26:04.122Z,49.50
2018-06-12T15:28:32.346Z,50.60
2018-06-12T15:31:00.632Z,50.50
2018-06-12T15:33:29.392Z,50.80
2018-06-12T15:35:57.662Z,51.70
2018-06-12T15:38:25.870Z,52.50
2018-06-12T15:40:54.456Z,51.80
2018-06-12T15:43:22.706Z,53.60
2018-06-12T15:45:51.001Z,51.60
2018-06-12T15:48:19.561Z,51.90
2018-06-12T15:50:47.755Z,53.30
2018-06-12T15:53:16.299Z,52.80
2018-06-12T15:55:44.916Z,53.30
2018-06-12T15:58:13.578Z,53.70
2018-06-12T16:00:41.867Z,53.00
2018-06-12T16:03:10.068Z,53.60
2018-06-12T16:05:38.320Z,55.00
2018-06-12T16:08:06.590Z,54.10
2018-06-12T16:13:02.802Z,57.50
2018-06-12T16:15:31.475Z,58.00
2018-06-12T16:17:59.691Z,55.40
2018-06-12T16:20:27.977Z,55.00
2018-06-12T16:22:56.189Z,54.90
2018-06-12T16:25:24.723Z,55.60
2018-06-12T16:27:52.965Z,55.60
2018-06-12T16:30:21.523Z,56.20
2018-06-12T16:32:49.782Z,56.30
2018-06-12T16:35:18.384Z,56.80
2018-06-12T16:37:46.616Z,56.50
2018-06-12T16:40:14.846Z,56.70
2018-06-12T16:42:49.658Z,59.20
2018-06-12T16:45:18.446Z,58.90
2018-06-12T16:47:47.004Z,57.00
2018-06-12T16:50:15.340Z,57.50
2018-06-12T16:52:43.739Z,61.50
2018-06-12T16:55:12.011Z,62.30
2018-06-12T16:57:40.474Z,62.20
2018-06-12T17:00:09.142Z,62.40
2018-06-12T17:02:37.432Z,58.70
2018-06-12T17:05:06.003Z,62.10
2018-06-12T17:07:35.688Z,61.50
2018-06-12T17:10:04.208Z,58.00
2018-06-12T17:12:32.502Z,59.40
2018-06-12T17:15:00.866Z,58.80
2018-06-12T17:17:29.189Z,60.80
2018-06-12T17:19:57.432Z,60.40
2018-06-12T17:22:26.388Z,60.70
2018-06-12T17:24:54.626Z,59.40
2018-06-12T17:27:22.900Z,61.10
2018-06-12T17:29:51.491Z,60.30
2018-06-12T17:32:20.074Z,60.40
2018-06-12T17:34:48.279Z,60.80
2018-06-12T17:37:16.539Z,61.20
2018-06-12T17:39:45.064Z,61.50
2018-06-12T17:42:13.347Z,63.60
2018-06-12T17:44:41.592Z,62.20
2018-06-12T17:47:09.992Z,63.40
2018-06-12T17:49:38.815Z,63.40
2018-06-12T17:52:07.176Z,64.20
2018-06-12T17:54:36.810Z,64.30
2018-06-12T17:57:05.503Z,64.30
2018-06-12T17:59:34.194Z,64.60
2018-06-12T18:02:03.247Z,65.00
2018-06-12T18:04:32.197Z,65.60
2018-06-12T18:07:00.919Z,66.50
2018-06-12T18:09:29.658Z,66.80
2018-06-12T18:11:59.313Z,67.70
2018-06-12T18:14:28.177Z,66.00
2018-06-12T18:16:58.225Z,68.30
2018-06-12T18:19:26.632Z,67.80
2018-06-12T18:21:55.610Z,68.50
2018-06-12T18:24:24.722Z,68.90
2018-06-12T18:26:53.410Z,68.80
2018-06-12T18:29:25.501Z,69.60
2018-06-12T18:31:53.822Z,69.80
2018-06-12T18:34:22.714Z,69.70
2018-06-12T18:36:50.988Z,70.80
2018-06-12T18:39:19.452Z,70.20
2018-06-12T18:41:48.557Z,70.90
2018-06-12T18:44:17.038Z,71.80
2018-06-12T18:46:45.339Z,71.20
2018-06-12T18:49:13.739Z,71.40
2018-06-12T18:51:42.484Z,70.90
2018-06-12T18:54:10.843Z,72.70
2018-06-12T18:56:39.258Z,75.80
2018-06-12T18:59:08.661Z,78.10
2018-06-12T19:01:37.496Z,83.90
2018-06-12T19:04:06.891Z,84.90
2018-06-12T19:06:35.689Z,87.20
2018-06-12T19:11:33.674Z,86.70
2018-06-12T19:14:01.955Z,91.90
2018-06-12T19:16:30.247Z,91.30
2018-06-12T19:19:02.186Z,93.90
2018-06-12T19:21:30.543Z,94.70
2018-06-12T19:23:59.166Z,93.70
2018-06-12T19:26:27.702Z,96.70
2018-06-12T19:28:55.977Z,98.70
2018-06-12T19:31:24.399Z,97.70
2018-06-12T19:33:52.772Z,98.50
2018-06-12T19:36:21.331Z,98.00
2018-06-12T19:38:50.902Z,96.90
2018-06-12T19:41:19.758Z,99.90
2018-06-12T19:43:53.557Z,99.90
2018-06-12T19:46:21.987Z,99.90
2018-06-12T19:48:50.383Z,98.20
2018-06-12T19:51:26.644Z,99.90
2018-06-12T19:53:54.983Z,99.90
2018-06-12T19:56:23.542Z,99.90
2018-06-12T19:58:53.280Z,99.90
2018-06-12T20:01:22.066Z,99.90
2018-06-12T20:03:51.026Z,99.90
2018-06-12T20:08:49.077Z,98.70
2018-06-12T20:11:17.731Z,99.10
2018-06-12T20:13:46.486Z,99.90
2018-06-12T20:16:17.055Z,99.90
2018-06-12T20:18:45.641Z,99.90
2018-06-12T20:21:14.935Z,99.90
2018-06-12T20:23:43.998Z,99.90
2018-06-12T20:26:12.748Z,99.90
2018-06-12T20:28:41.042Z,99.90
2018-06-12T20:31:09.650Z,99.90
2018-06-12T20:33:38.739Z,99.90
2018-06-12T20:36:07.458Z,99.90
2018-06-12T20:38:36.111Z,99.90
2018-06-12T20:41:04.610Z,99.90
2018-06-12T20:43:33.026Z,99.90
2018-06-12T20:46:01.299Z,99.90
2018-06-12T20:48:30.785Z,99.90
2018-06-12T20:51:00.102Z,99.90
2018-06-12T20:53:28.313Z,99.90
2018-06-12T20:55:57.169Z,99.90
2018-06-12T20:58:26.085Z,99.90
2018-06-12T21:00:54.380Z,99.90
2018-06-12T21:03:23.708Z,99.90
2018-06-12T21:05:53.467Z,99.90
2018-06-12T21:08:22.810Z,99.90
2018-06-12T21:10:51.355Z,99.90
2018-06-12T21:13:19.772Z,99.90
2018-06-12T21:15:48.504Z,99.90
2018-06-12T21:18:16.897Z,99.90
2018-06-12T21:20:46.215Z,99.90
2018-06-12T21:23:15.159Z,99.90
2018-06-12T21:25:44.338Z,99.90
2018-06-12T21:28:13.434Z,99.90
2018-06-12T21:30:41.726Z,99.90
2018-06-12T21:33:10.998Z,99.90
2018-06-12T21:35:39.504Z,99.90
2018-06-12T21:38:08.294Z,99.90
2018-06-12T21:40:37.537Z,99.90
2018-06-12T21:43:06.883Z,99.90
2018-06-12T21:45:35.087Z,99.90
2018-06-12T21:48:03.707Z,99.90
2018-06-12T21:50:32.558Z,99.90
2018-06-12T21:53:01.211Z,99.90
2018-06-12T21:55:30.146Z,99.90
2018-06-12T21:57:58.330Z,99.90
2018-06-12T22:00:34.685Z,99.90
2018-06-12T22:03:03.933Z,99.90
2018-06-12T22:05:32.827Z,99.90
2018-06-12T22:08:01.763Z,99.90
2018-06-12T22:10:30.065Z,99.90
2018-06-12T22:12:58.730Z,99.90
2018-06-12T22:15:26.922Z,99.90
2018-06-12T22:17:56.070Z,99.90
2018-06-12T22:20:24.302Z,99.90
2018-06-12T22:22:52.882Z,99.90
2018-06-12T22:25:21.106Z,99.90
2018-06-12T22:27:49.300Z,99.90
2018-06-12T22:30:17.555Z,99.90
2018-06-12T22:32:45.774Z,99.90
2018-06-12T22:35:13.993Z,99.90
2018-06-12T22:37:42.503Z,99.90
2018-06-12T22:40:11.471Z,99.90
2018-06-12T22:42:39.963Z,99.90
2018-06-12T22:45:08.162Z,99.90
2018-06-12T22:47:36.681Z,99.90
2018-06-12T22:52:33.089Z,99.90
2018-06-12T22:55:02.096Z,99.90
2018-06-12T22:57:31.148Z,99.90
2018-06-12T22:59:59.661Z,99.90
2018-06-12T23:02:27.886Z,99.90
2018-06-12T23:04:56.106Z,99.90
2018-06-12T23:07:24.366Z,99.90
2018-06-12T23:09:52.574Z,99.90
2018-06-12T23:12:21.210Z,99.90
2018-06-12T23:14:49.458Z,99.90
2018-06-12T23:17:18.087Z,99.90
2018-06-12T23:19:57.684Z,99.90
2018-06-12T23:22:25.884Z,99.90
2018-06-12T23:24:54.538Z,99.90
2018-06-12T23:27:23.213Z,99.90
2018-06-12T23:29:51.459Z,99.90
2018-06-12T23:32:19.659Z,99.90
2018-06-12T23:34:48.318Z,99.90
2018-06-12T23:39:45.915Z,99.90
2018-06-12T23:42:14.677Z,99.90
2018-06-12T23:44:43.453Z,99.90
2018-06-12T23:47:11.985Z,99.90
2018-06-12T23:49:40.174Z,99.90
2018-06-12T23:52:08.801Z,99.90
2018-06-12T23:54:37.602Z,99.90
2018-06-12T23:57:05.784Z,99.90
2018-06-12T23:59:33.984Z,99.90
